createdAt,value
2018-06-20T00:00:30.501Z,2.40
2018-06-20T00:03:04.404Z,2.27
2018-06-20T00:05:38.836Z,2.63
2018-06-20T00:08:12.914Z,1.73
2018-06-20T00:10:46.968Z,1.90
2018-06-20T00:13:20.756Z,2.30
2018-06-20T00:15:54.473Z,2.37
2018-06-20T00:18:28.482Z,2.87
2018-06-20T00:21:02.435Z,2.90
2018-06-20T00:23:36.122Z,2.30
2018-06-20T00:26:09.958Z,2.27
2018-06-20T00:28:44.475Z,2.27
2018-06-20T00:31:16.831Z,2.57
2018-06-20T00:33:50.901Z,2.55
2018-06-20T00:36:25.918Z,1.93
2018-06-20T00:38:59.671Z,2.20
2018-06-20T00:41:33.928Z,2.20
2018-06-20T00:44:08.005Z,2.57
2018-06-20T00:46:42.739Z,2.73
2018-06-20T00:49:17.763Z,2.57
2018-06-20T00:51:51.966Z,2.03
2018-06-20T00:54:26.074Z,2.30
2018-06-20T00:57:00.528Z,2.43
2018-06-20T00:59:34.822Z,2.60
2018-06-20T01:02:39.460Z,2.20
2018-06-20T01:05:13.838Z,2.50
2018-06-20T01:07:48.450Z,2.63
2018-06-20T01:10:22.519Z,2.93
2018-06-20T01:12:57.362Z,3.00
2018-06-20T01:15:29.687Z,3.10
2018-06-20T01:18:03.938Z,3.70
2018-06-20T01:20:38.150Z,3.03
2018-06-20T01:23:13.144Z,2.67
2018-06-20T01:25:50.786Z,4.00
2018-06-20T01:28:25.517Z,6.80
2018-06-20T01:30:59.590Z,4.10
2018-06-20T01:33:34.726Z,3.53
2018-06-20T01:36:08.568Z,2.77
2018-06-20T01:38:44.827Z,2.73
2018-06-20T01:41:18.504Z,2.90
2018-06-20T01:43:58.285Z,4.27
2018-06-20T01:46:33.278Z,3.07
2018-06-20T01:49:07.362Z,2.73
2018-06-20T01:51:40.748Z,2.77
2018-06-20T01:54:17.131Z,2.30
2018-06-20T01:56:54.545Z,2.70
2018-06-20T01:59:29.142Z,2.72
2018-06-20T02:02:02.862Z,3.10
2018-06-20T02:04:36.590Z,3.80
2018-06-20T02:07:11.165Z,3.03
2018-06-20T02:09:44.662Z,3.10
2018-06-20T02:12:19.531Z,3.47
2018-06-20T02:14:53.354Z,2.87
2018-06-20T02:17:27.289Z,2.72
2018-06-20T02:20:02.884Z,3.08
2018-06-20T02:22:37.025Z,3.30
2018-06-20T02:25:11.113Z,3.27
2018-06-20T02:27:45.211Z,3.77
2018-06-20T02:30:19.221Z,3.23
2018-06-20T02:32:53.570Z,3.40
2018-06-20T02:35:27.457Z,4.00
2018-06-20T02:38:01.299Z,3.17
2018-06-20T02:40:38.607Z,3.30
2018-06-20T02:43:12.650Z,3.03
2018-06-20T02:45:45.065Z,3.92
2018-06-20T02:48:18.935Z,3.40
2018-06-20T02:50:53.218Z,2.90
2018-06-20T02:53:26.852Z,3.43
2018-06-20T02:56:01.072Z,3.90
2018-06-20T02:58:36.340Z,3.30
2018-06-20T03:01:10.096Z,3.97
2018-06-20T03:03:42.758Z,3.03
2018-06-20T03:06:16.577Z,3.50
2018-06-20T03:08:53.944Z,3.30
2018-06-20T03:11:27.885Z,3.50
2018-06-20T03:14:01.711Z,2.90
2018-06-20T03:16:35.463Z,2.80
2018-06-20T03:19:09.165Z,2.70
2018-06-20T03:21:42.870Z,3.10
2018-06-20T03:24:16.655Z,3.03
2018-06-20T03:26:50.592Z,3.10
2018-06-20T03:29:24.961Z,2.97
2018-06-20T03:31:58.936Z,2.50
2018-06-20T03:34:32.580Z,2.60
2018-06-20T03:37:06.043Z,3.00
2018-06-20T03:39:39.521Z,2.80
2018-06-20T03:42:14.340Z,3.43
2018-06-20T03:44:48.491Z,3.17
2018-06-20T03:47:21.107Z,2.73
2018-06-20T03:49:53.419Z,2.80
2018-06-20T03:52:27.500Z,2.80
2018-06-20T03:55:01.707Z,2.70
2018-06-20T03:57:35.959Z,2.67
2018-06-20T04:00:10.065Z,2.90
2018-06-20T04:41:44.749Z,2.72
2018-06-20T04:44:19.845Z,2.12
2018-06-20T04:46:52.132Z,2.20
2018-06-20T04:49:27.487Z,2.40
2018-06-20T04:52:01.505Z,2.70
2018-06-20T04:54:35.659Z,3.13
2018-06-20T04:57:09.559Z,2.30
2018-06-20T04:59:43.676Z,2.60
2018-06-20T05:02:16.463Z,2.87
2018-06-20T05:04:51.232Z,2.83
2018-06-20T05:07:25.605Z,2.40
2018-06-20T05:09:59.947Z,3.02
2018-06-20T05:12:34.320Z,2.58
2018-06-20T05:15:08.341Z,2.77
2018-06-20T05:17:42.494Z,2.70
2018-06-20T05:20:16.379Z,2.42
2018-06-20T05:22:50.873Z,2.87
2018-06-20T05:25:24.747Z,2.70
2018-06-20T05:27:58.935Z,2.43
2018-06-20T05:30:32.928Z,2.60
2018-06-20T05:33:07.273Z,2.77
2018-06-20T05:35:41.140Z,2.02
2018-06-20T05:38:15.438Z,2.83
2018-06-20T05:40:50.245Z,2.58
2018-06-20T05:43:22.478Z,2.72
2018-06-20T05:45:58.488Z,2.53
2018-06-20T05:48:32.765Z,2.85
2018-06-20T05:51:06.708Z,2.20
2018-06-20T05:53:41.133Z,2.70
2018-06-20T05:56:14.759Z,2.44
2018-06-20T05:58:49.569Z,2.72
2018-06-20T06:01:23.514Z,2.30
2018-06-20T06:03:57.259Z,2.33
2018-06-20T06:06:31.800Z,2.20
2018-06-20T06:09:05.786Z,2.15
2018-06-20T06:11:39.982Z,2.27
2018-06-20T06:14:14.457Z,1.65
2018-06-20T06:16:48.524Z,2.60
2018-06-20T06:19:22.738Z,2.33
2018-06-20T06:21:56.805Z,2.37
2018-06-20T06:24:31.473Z,2.50
2018-06-20T06:27:05.690Z,1.92
2018-06-20T06:29:39.608Z,2.27
2018-06-20T06:32:13.152Z,2.27
2018-06-20T06:34:48.089Z,4.22
2018-06-20T06:37:22.173Z,2.70
2018-06-20T06:39:56.329Z,2.35
2018-06-20T06:42:30.669Z,2.33
2018-06-20T06:45:04.564Z,2.90
2018-06-20T06:47:39.984Z,3.20
2018-06-20T06:50:14.599Z,2.77
2018-06-20T06:52:48.980Z,2.75
2018-06-20T06:55:24.142Z,2.12
2018-06-20T06:57:59.979Z,2.52
2018-06-20T07:00:32.368Z,2.72
2018-06-20T07:03:06.564Z,2.85
2018-06-20T07:05:40.629Z,2.40
2018-06-20T07:08:15.240Z,2.45
2018-06-20T07:10:49.005Z,2.43
2018-06-20T07:13:23.416Z,3.12
2018-06-20T07:16:00.355Z,2.86
2018-06-20T07:18:34.306Z,2.55
2018-06-20T07:21:08.550Z,2.08
2018-06-20T07:23:45.278Z,2.02
2018-06-20T07:26:20.118Z,2.30
2018-06-20T07:28:54.791Z,2.12
2018-06-20T07:31:28.703Z,2.70
2018-06-20T07:34:04.187Z,4.53
2018-06-20T07:36:38.588Z,2.33
2018-06-20T07:39:14.077Z,2.40
2018-06-20T07:41:47.997Z,2.30
2018-06-20T07:44:22.157Z,2.45
2018-06-20T07:46:55.984Z,2.20
2018-06-20T07:49:30.888Z,2.52
2018-06-20T07:52:06.028Z,2.55
2018-06-20T07:54:39.947Z,2.50
2018-06-20T07:57:14.542Z,2.45
2018-06-20T07:59:51.034Z,2.50
2018-06-20T08:03:35.517Z,2.50
2018-06-20T08:06:13.589Z,2.25
2018-06-20T08:08:51.680Z,2.50
2018-06-20T08:11:30.180Z,3.08
2018-06-20T08:14:08.324Z,2.90
2018-06-20T08:16:46.291Z,2.30
2018-06-20T08:19:23.992Z,2.33
2018-06-20T08:21:58.981Z,2.22
2018-06-20T08:24:34.081Z,2.65
2018-06-20T08:27:08.649Z,2.55
2018-06-20T08:29:43.673Z,2.00
2018-06-20T08:32:19.225Z,2.25
2018-06-20T08:34:51.768Z,2.27
2018-06-20T08:37:26.975Z,2.50
2018-06-20T08:40:01.100Z,2.12
2018-06-20T08:42:36.002Z,2.83
2018-06-20T08:45:11.080Z,2.70
2018-06-20T08:47:45.928Z,2.98
2018-06-20T08:50:21.748Z,2.42
2018-06-20T08:52:56.233Z,2.22
2018-06-20T08:55:31.357Z,2.15
2018-06-20T08:58:05.517Z,1.80
2018-06-20T09:00:43.701Z,2.77
2018-06-20T09:03:17.754Z,2.10
2018-06-20T09:05:57.109Z,2.10
2018-06-20T09:08:35.963Z,2.52
2018-06-20T09:11:14.344Z,2.20
2018-06-20T09:13:51.867Z,2.23
2018-06-20T09:16:28.063Z,2.20
2018-06-20T09:19:06.480Z,2.47
2018-06-20T09:21:41.461Z,2.15
2018-06-20T09:24:16.903Z,2.30
2018-06-20T09:26:49.012Z,2.30
2018-06-20T09:29:22.799Z,1.72
2018-06-20T09:31:57.311Z,1.37
2018-06-20T09:34:31.326Z,1.57
2018-06-20T09:37:04.205Z,1.70
2018-06-20T09:39:36.612Z,1.45
2018-06-20T09:42:10.177Z,1.62
2018-06-20T09:44:42.857Z,1.83
2018-06-20T09:47:16.640Z,1.80
2018-06-20T09:49:52.275Z,1.20
2018-06-20T09:52:27.499Z,2.00
2018-06-20T09:55:01.229Z,2.02
2018-06-20T09:57:35.763Z,1.62
2018-06-20T10:00:13.293Z,2.52
2018-06-20T10:02:52.483Z,1.70
2018-06-20T10:05:28.946Z,1.90
2018-06-20T10:08:06.904Z,5.12
2018-06-20T10:10:45.132Z,3.50
2018-06-20T10:13:20.491Z,3.37
2018-06-20T10:15:54.205Z,2.65
2018-06-20T10:18:28.126Z,2.20
2018-06-20T10:21:00.431Z,2.70
2018-06-20T10:23:34.182Z,2.20
2018-06-20T10:26:07.501Z,2.10
2018-06-20T10:28:42.651Z,2.17
2018-06-20T10:31:16.270Z,2.57
2018-06-20T10:33:50.421Z,2.20
2018-06-20T10:36:24.246Z,2.20
2018-06-20T10:38:58.324Z,3.00
2018-06-20T10:41:38.931Z,2.87
2018-06-20T10:44:16.223Z,3.23
2018-06-20T10:46:52.503Z,2.70
2018-06-20T10:49:27.252Z,1.40
2018-06-20T10:52:01.093Z,1.90
2018-06-20T10:54:36.214Z,2.13
2018-06-20T10:57:13.925Z,1.90
2018-06-20T11:00:52.818Z,1.65
2018-06-20T11:03:31.159Z,1.67
2018-06-20T11:06:08.226Z,1.53
2018-06-20T11:08:44.621Z,1.30
2018-06-20T11:11:21.203Z,1.93
2018-06-20T11:13:55.569Z,1.73
2018-06-20T11:16:29.985Z,2.00
2018-06-20T11:19:03.901Z,2.00
2018-06-20T11:21:38.024Z,2.27
2018-06-20T11:24:12.079Z,1.60
2018-06-20T11:26:47.453Z,1.60
2018-06-20T11:29:21.514Z,1.40
2018-06-20T11:31:55.381Z,2.20
2018-06-20T11:34:29.728Z,2.07
2018-06-20T11:37:03.830Z,1.73
2018-06-20T11:39:38.984Z,1.80
2018-06-20T11:42:13.078Z,2.17
2018-06-20T11:44:47.392Z,1.80
2018-06-20T11:47:25.732Z,1.67
2018-06-20T11:53:09.001Z,1.87
2018-06-20T11:55:47.812Z,1.53
2018-06-20T11:58:25.701Z,2.00
2018-06-20T12:01:05.380Z,1.67
2018-06-20T12:03:44.023Z,2.10
2018-06-20T12:06:22.940Z,1.90
2018-06-20T12:09:00.867Z,1.90
2018-06-20T12:11:37.151Z,2.57
2018-06-20T12:14:15.023Z,2.10
2018-06-20T12:16:49.313Z,1.70
2018-06-20T12:19:28.660Z,7.93
2018-06-20T12:22:06.823Z,4.90
2018-06-20T12:24:45.127Z,4.23
2018-06-20T12:27:22.934Z,3.20
2018-06-20T12:30:01.731Z,4.73
2018-06-20T12:32:39.587Z,7.87
2018-06-20T12:35:17.852Z,6.57
2018-06-20T12:37:55.694Z,7.50
2018-06-20T12:40:33.640Z,5.60
2018-06-20T12:43:11.513Z,4.10
2018-06-20T12:45:44.893Z,4.53
2018-06-20T12:48:19.183Z,8.23
2018-06-20T12:50:53.382Z,6.90
2018-06-20T12:53:27.612Z,3.87
2018-06-20T12:56:02.848Z,6.17
2018-06-20T12:58:36.756Z,6.03
2018-06-20T13:01:10.703Z,5.00
2018-06-20T13:03:44.437Z,3.07
2018-06-20T13:06:19.276Z,2.03
2018-06-20T13:08:53.413Z,2.87
2018-06-20T13:11:27.453Z,3.50
2018-06-20T13:14:01.108Z,3.63
2018-06-20T13:16:36.185Z,3.00
2018-06-20T13:19:10.065Z,2.10
2018-06-20T13:21:44.263Z,2.50
2018-06-20T13:24:17.957Z,2.80
2018-06-20T13:26:51.913Z,1.70
2018-06-20T13:29:26.009Z,1.67
2018-06-20T13:32:03.198Z,2.70
2018-06-20T13:34:41.122Z,2.00
2018-06-20T13:37:19.067Z,2.30
2018-06-20T13:39:56.862Z,2.20
2018-06-20T13:42:34.907Z,2.20
2018-06-20T13:45:13.215Z,1.83
2018-06-20T13:47:50.537Z,1.80
2018-06-20T13:50:22.942Z,1.92
2018-06-20T13:52:57.329Z,2.33
2018-06-20T13:55:31.385Z,2.60
2018-06-20T13:58:07.401Z,2.13
2018-06-20T14:00:39.769Z,2.20
2018-06-20T14:03:15.079Z,2.37
2018-06-20T14:05:48.666Z,2.20
2018-06-20T14:08:22.413Z,2.10
2018-06-20T14:10:56.850Z,2.07
2018-06-20T14:13:28.941Z,2.50
2018-06-20T14:16:03.192Z,2.20
2018-06-20T14:18:37.143Z,2.43
2018-06-20T14:37:28.652Z,1.90
2018-06-20T14:41:08.669Z,2.00
2018-06-20T14:43:46.811Z,2.50
2018-06-20T14:46:22.909Z,2.13
2018-06-20T14:48:58.404Z,2.10
2018-06-20T14:51:32.071Z,1.50
2018-06-20T14:54:06.497Z,1.87
2018-06-20T14:56:41.728Z,1.83
2018-06-20T14:59:17.052Z,1.77
2018-06-20T15:01:51.227Z,1.83
2018-06-20T15:04:26.888Z,2.30
2018-06-20T15:07:00.747Z,2.27
2018-06-20T15:09:34.816Z,1.80
2018-06-20T15:12:09.291Z,2.33
2018-06-20T15:14:43.093Z,2.60
2018-06-20T15:17:21.777Z,2.30
2018-06-20T15:19:55.797Z,2.10
2018-06-20T15:22:33.604Z,2.30
2018-06-20T15:25:07.512Z,2.20
2018-06-20T15:28:45.682Z,2.30
2018-06-20T15:31:23.397Z,1.80
2018-06-20T15:34:01.926Z,1.77
2018-06-20T15:36:40.001Z,2.70
2018-06-20T15:39:14.755Z,2.40
2018-06-20T15:41:48.552Z,2.40
2018-06-20T15:44:22.974Z,2.50
2018-06-20T15:46:56.791Z,1.77
2018-06-20T15:49:31.525Z,1.80
2018-06-20T15:52:05.350Z,2.23
2018-06-20T15:54:39.521Z,2.30
2018-06-20T15:57:13.592Z,1.63
2018-06-20T15:59:51.280Z,1.70
2018-06-20T16:02:25.621Z,1.82
2018-06-20T16:04:59.723Z,1.60
2018-06-20T16:07:34.356Z,2.20
2018-06-20T16:10:10.454Z,2.08
2018-06-20T16:12:44.811Z,1.77
2018-06-20T16:15:19.950Z,1.73
2018-06-20T16:17:54.032Z,1.80
2018-06-20T16:20:32.196Z,1.30
2018-06-20T16:23:10.081Z,1.80
2018-06-20T16:25:48.020Z,2.57
2018-06-20T16:28:26.042Z,2.15
2018-06-20T16:30:59.964Z,2.10
2018-06-20T16:33:33.701Z,2.17
2018-06-20T16:36:07.471Z,1.97
2018-06-20T16:38:40.981Z,2.03
2018-06-20T16:41:15.016Z,1.87
2018-06-20T16:43:49.253Z,1.93
2018-06-20T16:46:21.527Z,2.02
2018-06-20T16:48:56.387Z,2.10
2018-06-20T16:51:30.336Z,2.50
2018-06-20T16:54:04.465Z,2.25
2018-06-20T16:56:38.981Z,2.57
2018-06-20T16:59:13.410Z,2.30
2018-06-20T17:01:52.166Z,1.97
2018-06-20T17:04:25.922Z,2.77
2018-06-20T17:07:00.053Z,2.50
2018-06-20T17:09:33.802Z,2.37
2018-06-20T17:12:11.670Z,2.40
2018-06-20T17:14:49.672Z,2.60
2018-06-20T17:17:27.464Z,2.50
2018-06-20T17:20:04.523Z,2.43
2018-06-20T17:22:43.537Z,2.40
2018-06-20T17:25:47.833Z,2.57
2018-06-20T17:28:21.646Z,2.40
2018-06-20T17:30:55.456Z,2.33
2018-06-20T17:33:29.685Z,3.10
2018-06-20T17:36:03.662Z,2.27
2018-06-20T17:38:38.820Z,2.47
2018-06-20T17:41:13.778Z,2.13
2018-06-20T17:43:47.824Z,2.10
2018-06-20T17:46:22.950Z,2.60
2018-06-20T17:48:57.887Z,1.87
2018-06-20T17:51:30.156Z,1.82
2018-06-20T17:54:03.948Z,2.30
2018-06-20T17:56:38.210Z,2.50
2018-06-20T17:59:12.398Z,2.10
2018-06-20T18:01:44.668Z,1.87
2018-06-20T18:04:25.023Z,2.50
2018-06-20T18:09:06.458Z,2.40
2018-06-20T18:11:42.989Z,2.60
2018-06-20T18:14:20.795Z,2.40
2018-06-20T18:17:00.984Z,2.40
2018-06-20T18:19:34.951Z,2.43
2018-06-20T18:22:08.626Z,2.23
2018-06-20T18:24:43.026Z,2.40
2018-06-20T18:27:16.600Z,2.50
2018-06-20T18:29:50.579Z,2.50
2018-06-20T18:32:24.928Z,2.30
2018-06-20T18:34:58.829Z,2.47
2018-06-20T18:37:33.315Z,2.13
2018-06-20T18:40:09.036Z,2.80
2018-06-20T18:42:43.026Z,2.20
2018-06-20T18:45:16.968Z,2.70
2018-06-20T18:47:54.970Z,2.37
2018-06-20T18:50:28.701Z,2.47
2018-06-20T18:53:03.250Z,2.52
2018-06-20T18:55:36.775Z,2.70
2018-06-20T18:58:13.102Z,2.50
2018-06-20T19:00:51.011Z,2.67
2018-06-20T19:03:29.177Z,2.50
2018-06-20T19:06:08.858Z,2.40
2018-06-20T19:08:46.767Z,2.73
2018-06-20T19:43:59.044Z,3.10
2018-06-20T19:46:32.976Z,2.57
2018-06-20T19:49:08.001Z,2.33
2018-06-20T19:51:40.253Z,2.30
2018-06-20T19:54:14.486Z,2.30
2018-06-20T19:56:50.817Z,2.60
2018-06-20T19:59:24.881Z,2.55
2018-06-20T20:01:58.943Z,2.70
2018-06-20T20:04:32.801Z,2.23
2018-06-20T20:07:07.410Z,1.80
2018-06-20T20:09:41.444Z,2.60
2018-06-20T20:12:15.955Z,2.60
2018-06-20T20:14:50.042Z,2.67
2018-06-20T20:17:23.769Z,2.33
2018-06-20T20:19:56.352Z,2.70
2018-06-20T20:22:31.077Z,2.20
2018-06-20T20:25:04.861Z,2.62
2018-06-20T20:27:37.134Z,2.43
2018-06-20T20:30:10.998Z,2.60
2018-06-20T20:32:51.056Z,2.40
2018-06-20T20:35:25.242Z,2.17
2018-06-20T20:37:59.339Z,2.10
2018-06-20T20:40:32.435Z,2.40
2018-06-20T20:43:06.227Z,2.60
2018-06-20T20:45:38.932Z,2.17
2018-06-20T20:48:13.404Z,2.55
2018-06-20T20:50:45.898Z,2.33
2018-06-20T20:53:19.836Z,2.77
2018-06-20T20:55:53.591Z,2.30
2018-06-20T20:58:27.779Z,2.57
2018-06-20T21:01:01.761Z,2.70
2018-06-20T21:03:35.790Z,2.80
2018-06-20T21:06:09.962Z,2.40
2018-06-20T21:08:45.255Z,3.33
2018-06-20T21:11:19.408Z,2.03
2018-06-20T21:13:53.478Z,2.87
2018-06-20T21:16:27.397Z,2.70
2018-06-20T21:19:02.259Z,3.05
2018-06-20T21:21:35.752Z,2.53
2018-06-20T21:24:09.379Z,2.93
2018-06-20T21:26:41.636Z,2.80
2018-06-20T21:29:15.719Z,2.30
2018-06-20T21:31:49.355Z,2.27
2018-06-20T21:34:21.559Z,2.87
2018-06-20T21:36:55.676Z,2.40
2018-06-20T21:39:30.108Z,2.90
2018-06-20T21:42:04.113Z,2.80
2018-06-20T21:44:37.915Z,2.80
2018-06-20T21:47:12.233Z,2.30
2018-06-20T21:49:46.384Z,3.17
2018-06-20T21:52:20.292Z,2.50
2018-06-20T21:54:53.946Z,3.03
2018-06-20T21:57:27.997Z,3.12
2018-06-20T22:00:01.651Z,2.77
2018-06-20T22:02:35.750Z,2.90
2018-06-20T22:05:09.808Z,2.80
2018-06-20T22:07:43.722Z,2.60
2018-06-20T22:10:18.819Z,3.00
2018-06-20T22:12:54.026Z,2.80
2018-06-20T22:15:28.084Z,2.30
2018-06-20T22:18:00.096Z,2.77
2018-06-20T22:20:33.972Z,2.90
2018-06-20T22:23:08.023Z,2.80
2018-06-20T22:25:41.745Z,2.87
2018-06-20T22:28:16.137Z,3.80
2018-06-20T22:30:50.127Z,2.77
2018-06-20T22:33:23.886Z,2.70
2018-06-20T22:35:57.533Z,3.10
2018-06-20T22:38:32.213Z,2.90
2018-06-20T22:41:06.037Z,2.83
2018-06-20T22:43:40.204Z,3.02
2018-06-20T22:46:14.405Z,3.20
2018-06-20T22:48:48.443Z,3.10
2018-06-20T22:51:22.786Z,2.73
2018-06-20T22:53:55.895Z,3.67
2018-06-20T22:56:29.813Z,2.97
2018-06-20T22:59:04.196Z,2.80
2018-06-20T23:01:37.912Z,3.23
2018-06-20T23:04:10.359Z,3.43
2018-06-20T23:06:44.202Z,3.20
2018-06-20T23:09:18.007Z,3.23
2018-06-20T23:11:53.914Z,2.27
2018-06-20T23:14:28.145Z,2.90
2018-06-20T23:17:02.274Z,3.07
2018-06-20T23:19:36.051Z,3.13
2018-06-20T23:22:09.860Z,2.90
2018-06-20T23:24:43.774Z,3.07
2018-06-20T23:27:17.923Z,2.75
2018-06-20T23:29:51.868Z,3.15
2018-06-20T23:32:25.775Z,2.70
2018-06-20T23:34:59.860Z,2.83
2018-06-20T23:37:32.093Z,3.17
2018-06-20T23:40:05.969Z,2.33
2018-06-20T23:42:42.271Z,2.70
2018-06-20T23:45:16.371Z,2.90
2018-06-20T23:47:50.311Z,3.40
2018-06-20T23:50:22.728Z,3.47
2018-06-20T23:52:56.292Z,2.77
2018-06-20T23:55:30.435Z,2.40
2018-06-20T23:58:04.298Z,2.77
